createdAt,value
2023-01-26T00:00:29.251Z,69.35
2023-01-26T00:03:01.295Z,69.33
2023-01-26T00:05:33.476Z,69.37
2023-01-26T00:08:05.983Z,68.96
2023-01-26T00:10:44.281Z,68.87
2023-01-26T00:13:16.393Z,69.00
2023-01-26T00:15:48.945Z,68.78
2023-01-26T00:18:21.025Z,68.96
2023-01-26T00:21:01.402Z,68.78
2023-01-26T00:23:35.743Z,68.55
2023-01-26T00:26:09.016Z,68.59
2023-01-26T00:28:41.210Z,68.45
2023-01-26T00:31:16.349Z,68.29
2023-01-26T00:33:48.911Z,68.28
2023-01-26T00:36:21.416Z,68.49
2023-01-26T00:38:53.672Z,68.70
2023-01-26T00:41:43.441Z,68.92
2023-01-26T00:44:15.606Z,68.88
2023-01-26T00:46:47.764Z,69.01
2023-01-26T00:49:19.753Z,69.15
2023-01-26T00:51:51.750Z,69.24
2023-01-26T00:54:23.939Z,69.01
2023-01-26T00:56:56.838Z,68.63
2023-01-26T00:59:29.925Z,68.57
2023-01-26T01:02:02.919Z,68.88
2023-01-26T01:04:35.097Z,69.02
2023-01-26T01:07:07.604Z,68.87
2023-01-26T01:09:40.716Z,68.75
2023-01-26T01:12:12.914Z,68.97
2023-01-26T01:14:45.496Z,68.98
2023-01-26T01:17:18.688Z,69.01
2023-01-26T01:19:50.895Z,68.93
2023-01-26T01:22:24.506Z,69.02
2023-01-26T01:24:57.112Z,68.63
2023-01-26T01:27:29.179Z,68.77
2023-01-26T01:30:01.254Z,68.90
2023-01-26T01:32:34.876Z,68.86
2023-01-26T01:35:07.406Z,68.81
2023-01-26T01:37:39.844Z,68.79
2023-01-26T01:40:15.236Z,68.29
2023-01-26T01:42:50.722Z,68.09
2023-01-26T01:45:31.787Z,67.84
2023-01-26T01:48:06.551Z,68.04
2023-01-26T01:50:40.859Z,68.34
2023-01-26T01:53:15.768Z,68.38
2023-01-26T01:55:48.448Z,68.75
2023-01-26T01:58:21.438Z,68.94
2023-01-26T02:00:53.506Z,69.04
2023-01-26T02:03:26.693Z,69.10
2023-01-26T02:06:13.692Z,68.72
2023-01-26T02:08:48.563Z,68.73
2023-01-26T02:11:32.532Z,68.74
2023-01-26T02:14:08.925Z,68.81
2023-01-26T02:16:41.080Z,68.89
2023-01-26T02:19:19.137Z,68.84
2023-01-26T02:21:53.309Z,68.80
2023-01-26T02:24:26.234Z,68.39
2023-01-26T02:26:59.053Z,68.47
2023-01-26T02:29:31.576Z,68.42
2023-01-26T02:32:03.732Z,68.70
2023-01-26T02:34:36.742Z,68.68
2023-01-26T02:37:12.075Z,68.64
2023-01-26T02:39:48.645Z,68.26
2023-01-26T02:42:38.486Z,68.49
2023-01-26T02:45:13.948Z,68.37
2023-01-26T02:47:46.481Z,68.29
2023-01-26T02:50:18.878Z,68.44
2023-01-26T02:52:50.805Z,68.65
2023-01-26T02:55:26.641Z,68.70
2023-01-26T02:58:01.686Z,68.57
2023-01-26T03:00:38.475Z,68.23
2023-01-26T03:03:22.757Z,68.22
2023-01-26T03:05:54.928Z,68.20
2023-01-26T03:08:27.044Z,68.20
2023-01-26T03:10:59.110Z,68.50
2023-01-26T03:13:31.125Z,68.56
2023-01-26T03:16:07.333Z,68.56
2023-01-26T03:18:57.731Z,68.39
2023-01-26T03:21:47.802Z,68.23
2023-01-26T03:24:38.070Z,68.40
2023-01-26T03:27:30.109Z,68.60
2023-01-26T03:30:04.242Z,68.40
2023-01-26T03:32:36.486Z,68.62
2023-01-26T03:35:11.725Z,68.68
2023-01-26T03:37:45.377Z,68.50
2023-01-26T03:40:37.152Z,68.60
2023-01-26T03:43:30.792Z,68.53
2023-01-26T03:46:22.723Z,68.56
2023-01-26T03:49:12.782Z,68.60
2023-01-26T03:52:02.868Z,68.79
2023-01-26T03:54:53.383Z,68.46
2023-01-26T03:57:26.360Z,68.52
2023-01-26T03:59:58.279Z,67.92
2023-01-26T04:02:48.394Z,68.28
2023-01-26T04:05:38.682Z,68.36
2023-01-26T04:08:27.530Z,68.06
2023-01-26T04:11:01.323Z,68.32
2023-01-26T04:13:51.810Z,68.21
2023-01-26T04:16:46.900Z,68.28
2023-01-26T04:19:37.439Z,67.97
2023-01-26T04:22:09.821Z,68.23
2023-01-26T04:24:42.349Z,68.66
2023-01-26T04:27:14.995Z,68.41
2023-01-26T04:29:48.175Z,68.30
2023-01-26T04:32:20.727Z,68.27
2023-01-26T04:34:53.180Z,68.40
2023-01-26T04:37:27.740Z,67.78
2023-01-26T04:40:01.448Z,67.96
2023-01-26T04:42:34.763Z,68.15
2023-01-26T04:45:09.359Z,68.35
2023-01-26T04:47:41.980Z,68.26
2023-01-26T04:50:14.596Z,68.26
2023-01-26T04:52:47.322Z,68.04
2023-01-26T04:55:20.778Z,68.16
2023-01-26T04:57:53.097Z,67.92
2023-01-26T05:00:26.080Z,67.79
2023-01-26T05:03:00.945Z,67.77
2023-01-26T05:05:34.403Z,67.75
2023-01-26T05:08:07.755Z,67.43
2023-01-26T05:10:40.110Z,67.33
2023-01-26T05:13:22.948Z,67.29
2023-01-26T05:16:09.422Z,67.60
2023-01-26T05:18:47.900Z,67.55
2023-01-26T05:21:27.739Z,67.63
2023-01-26T05:24:00.951Z,67.74
2023-01-26T05:26:35.430Z,67.51
2023-01-26T05:29:09.318Z,67.32
2023-01-26T05:31:42.213Z,67.20
2023-01-26T05:34:15.134Z,67.09
2023-01-26T05:36:47.533Z,67.46
2023-01-26T05:39:20.276Z,67.36
2023-01-26T05:41:53.039Z,67.39
2023-01-26T05:44:27.161Z,67.50
2023-01-26T05:47:00.167Z,67.67
2023-01-26T05:49:33.380Z,67.70
2023-01-26T05:52:09.855Z,67.18
2023-01-26T05:54:44.084Z,67.49
2023-01-26T05:57:17.847Z,67.25
2023-01-26T05:59:51.984Z,66.69
2023-01-26T06:02:24.269Z,67.01
2023-01-26T06:04:56.943Z,66.87
2023-01-26T06:07:29.201Z,66.94
2023-01-26T06:10:15.343Z,66.79
2023-01-26T06:12:48.197Z,67.07
2023-01-26T06:15:21.708Z,66.73
2023-01-26T06:17:56.001Z,66.56
2023-01-26T06:20:28.538Z,66.17
2023-01-26T06:23:02.665Z,66.67
2023-01-26T06:25:36.464Z,66.72
2023-01-26T06:28:09.454Z,66.61
2023-01-26T06:30:41.991Z,66.55
2023-01-26T06:33:15.901Z,66.43
2023-01-26T06:35:48.376Z,66.36
2023-01-26T06:38:22.276Z,66.14
2023-01-26T06:40:54.891Z,65.76
2023-01-26T06:43:28.312Z,65.90
2023-01-26T06:46:03.037Z,65.88
2023-01-26T06:48:37.082Z,65.54
2023-01-26T06:51:21.339Z,65.72
2023-01-26T06:53:59.950Z,65.85
2023-01-26T06:56:43.967Z,65.72
2023-01-26T06:59:37.443Z,65.83
2023-01-26T07:02:26.047Z,65.91
2023-01-26T07:04:58.758Z,65.57
2023-01-26T07:07:32.653Z,65.55
2023-01-26T07:10:07.933Z,65.42
2023-01-26T07:12:41.840Z,65.55
2023-01-26T07:15:15.144Z,65.26
2023-01-26T07:17:47.348Z,65.28
2023-01-26T07:20:20.071Z,65.55
2023-01-26T07:22:53.415Z,64.99
2023-01-26T07:25:27.054Z,64.67
2023-01-26T07:28:02.676Z,64.46
2023-01-26T07:30:35.276Z,64.46
2023-01-26T07:33:10.978Z,64.43
2023-01-26T07:35:43.273Z,64.22
2023-01-26T07:38:15.910Z,64.79
2023-01-26T07:40:48.036Z,65.01
2023-01-26T07:43:20.679Z,64.94
2023-01-26T07:45:55.725Z,64.97
2023-01-26T07:48:30.543Z,64.73
2023-01-26T07:51:04.714Z,64.42
2023-01-26T07:53:38.482Z,64.42
2023-01-26T07:56:14.112Z,63.88
2023-01-26T07:58:52.929Z,64.10
2023-01-26T08:01:25.962Z,64.12
2023-01-26T08:03:58.735Z,64.66
2023-01-26T08:06:33.094Z,64.14
2023-01-26T08:09:05.727Z,63.95
2023-01-26T08:11:38.976Z,63.76
2023-01-26T08:14:12.047Z,63.62
2023-01-26T08:16:45.677Z,63.91
2023-01-26T08:19:18.205Z,63.93
2023-01-26T08:21:52.028Z,63.54
2023-01-26T08:24:24.618Z,63.65
2023-01-26T08:26:57.822Z,63.34
2023-01-26T08:29:30.932Z,62.96
2023-01-26T08:32:03.342Z,63.05
2023-01-26T08:34:35.747Z,62.95
2023-01-26T08:37:08.024Z,63.80
2023-01-26T08:39:40.460Z,63.72
2023-01-26T08:42:13.429Z,63.65
2023-01-26T08:44:45.563Z,63.38
2023-01-26T08:47:17.957Z,63.28
2023-01-26T08:49:50.093Z,63.52
2023-01-26T08:52:22.364Z,63.47
2023-01-26T08:54:54.842Z,63.40
2023-01-26T08:57:27.284Z,63.33
2023-01-26T08:59:59.662Z,63.71
2023-01-26T09:02:33.676Z,63.26
2023-01-26T09:05:06.609Z,63.14
2023-01-26T09:07:39.864Z,62.86
2023-01-26T09:10:13.277Z,62.87
2023-01-26T09:12:45.658Z,62.93
2023-01-26T09:15:18.701Z,62.77
2023-01-26T09:17:51.960Z,62.96
2023-01-26T09:20:25.062Z,62.89
2023-01-26T09:22:57.999Z,62.30
2023-01-26T09:25:30.265Z,62.39
2023-01-26T09:28:05.665Z,62.45
2023-01-26T09:30:39.265Z,63.04
2023-01-26T09:33:11.769Z,63.23
2023-01-26T09:35:44.320Z,62.72
2023-01-26T09:38:16.887Z,62.67
2023-01-26T09:40:58.298Z,62.86
2023-01-26T09:43:48.286Z,63.69
2023-01-26T09:46:29.181Z,63.44
2023-01-26T09:49:12.816Z,63.12
2023-01-26T09:51:47.794Z,63.11
2023-01-26T09:54:26.496Z,62.97
2023-01-26T09:57:00.720Z,62.90
2023-01-26T09:59:35.374Z,63.07
2023-01-26T10:02:29.535Z,62.98
2023-01-26T10:05:04.577Z,62.87
2023-01-26T10:07:36.645Z,63.23
2023-01-26T10:10:10.780Z,63.28
2023-01-26T10:12:43.984Z,63.51
2023-01-26T10:15:39.270Z,63.42
2023-01-26T10:18:26.358Z,63.39
2023-01-26T10:21:00.859Z,63.60
2023-01-26T10:23:35.170Z,63.70
2023-01-26T10:26:22.671Z,63.42
2023-01-26T10:28:54.979Z,63.17
2023-01-26T10:31:30.437Z,63.41
2023-01-26T10:34:11.542Z,62.99
2023-01-26T10:36:46.143Z,62.69
2023-01-26T10:39:19.491Z,63.25
2023-01-26T10:42:03.561Z,63.55
2023-01-26T10:44:38.680Z,63.23
2023-01-26T10:47:18.554Z,63.22
2023-01-26T10:49:50.867Z,63.43
2023-01-26T10:52:28.403Z,64.00
2023-01-26T10:55:12.972Z,63.94
2023-01-26T10:57:45.433Z,64.02
2023-01-26T11:00:29.685Z,64.56
2023-01-26T11:03:08.966Z,64.45
2023-01-26T11:05:41.290Z,64.56
2023-01-26T11:08:36.123Z,64.28
2023-01-26T11:11:11.843Z,64.98
2023-01-26T11:13:44.191Z,64.82
2023-01-26T11:16:25.578Z,65.24
2023-01-26T11:19:00.657Z,65.39
2023-01-26T11:21:47.699Z,65.43
2023-01-26T11:24:31.498Z,65.63
2023-01-26T11:27:39.379Z,66.24
2023-01-26T11:30:37.987Z,66.17
2023-01-26T11:33:21.954Z,66.75
2023-01-26T11:36:16.225Z,67.44
2023-01-26T11:39:05.980Z,68.05
2023-01-26T11:41:47.123Z,68.11
2023-01-26T11:44:38.114Z,68.41
2023-01-26T11:47:16.066Z,68.59
2023-01-26T11:50:00.319Z,68.93
2023-01-26T11:52:54.405Z,69.12
2023-01-26T11:55:50.036Z,69.14
2023-01-26T11:58:27.839Z,69.58
2023-01-26T12:01:02.917Z,69.79
2023-01-26T12:03:43.578Z,70.16
2023-01-26T12:06:33.626Z,70.20
2023-01-26T12:09:23.431Z,70.79
2023-01-26T12:11:58.457Z,71.04
2023-01-26T12:14:33.628Z,71.17
2023-01-26T12:17:40.344Z,71.16
2023-01-26T12:20:27.683Z,71.45
2023-01-26T12:23:11.645Z,71.70
2023-01-26T12:25:49.497Z,71.61
2023-01-26T12:28:36.020Z,71.69
2023-01-26T12:31:19.635Z,71.77
2023-01-26T12:33:54.892Z,71.77
2023-01-26T12:36:39.025Z,71.17
2023-01-26T12:39:14.553Z,71.57
2023-01-26T12:41:58.625Z,71.27
2023-01-26T12:44:45.644Z,71.58
2023-01-26T12:47:32.616Z,71.32
2023-01-26T12:50:25.306Z,71.48
2023-01-26T12:53:12.014Z,71.25
2023-01-26T12:55:47.294Z,71.14
2023-01-26T12:58:30.986Z,70.91
2023-01-26T13:01:09.047Z,70.71
2023-01-26T13:04:02.167Z,70.51
2023-01-26T13:06:35.125Z,70.40
2023-01-26T13:09:23.758Z,70.67
2023-01-26T13:12:02.274Z,70.85
2023-01-26T13:14:46.280Z,71.29
2023-01-26T13:17:22.418Z,70.67
2023-01-26T13:20:00.376Z,70.56
2023-01-26T13:22:41.640Z,70.50
2023-01-26T13:25:33.837Z,70.18
2023-01-26T13:28:09.225Z,70.33
2023-01-26T13:30:46.495Z,70.47
2023-01-26T13:33:24.681Z,69.85
2023-01-26T13:35:58.266Z,69.77
2023-01-26T13:38:42.974Z,69.66
2023-01-26T13:41:23.111Z,69.47
2023-01-26T13:44:00.804Z,69.65
2023-01-26T13:46:42.282Z,69.77
2023-01-26T13:49:26.728Z,69.64
2023-01-26T13:51:58.726Z,69.64
2023-01-26T13:54:31.123Z,69.54
2023-01-26T13:57:08.565Z,69.32
2023-01-26T13:59:52.529Z,69.37
2023-01-26T14:02:34.195Z,69.35
2023-01-26T14:05:06.926Z,69.23
2023-01-26T14:07:45.926Z,69.27
2023-01-26T14:10:22.228Z,69.40
2023-01-26T14:12:57.687Z,69.25
2023-01-26T14:15:32.883Z,69.16
2023-01-26T14:18:06.595Z,68.90
2023-01-26T14:20:40.936Z,68.67
2023-01-26T14:23:21.865Z,68.77
2023-01-26T14:26:03.389Z,68.35
2023-01-26T14:28:39.129Z,68.34
2023-01-26T14:31:25.815Z,68.25
2023-01-26T14:34:00.588Z,68.69
2023-01-26T14:36:35.653Z,68.89
2023-01-26T14:39:22.207Z,68.66
2023-01-26T14:41:54.692Z,68.31
2023-01-26T14:44:27.254Z,68.26
2023-01-26T14:47:05.090Z,68.29
2023-01-26T14:49:55.681Z,68.72
2023-01-26T14:52:30.548Z,68.88
2023-01-26T14:55:20.648Z,68.64
2023-01-26T14:57:54.134Z,69.27
2023-01-26T15:00:37.610Z,69.27
2023-01-26T15:03:15.566Z,69.26
2023-01-26T15:05:47.768Z,69.25
2023-01-26T15:08:23.961Z,69.58
2023-01-26T15:11:21.097Z,69.51
2023-01-26T15:13:57.248Z,69.65
2023-01-26T15:16:29.342Z,69.55
2023-01-26T15:19:08.130Z,69.50
2023-01-26T15:21:44.324Z,70.17
2023-01-26T15:24:17.617Z,70.27
2023-01-26T15:26:51.575Z,69.94
2023-01-26T15:29:32.798Z,69.62
2023-01-26T15:32:05.759Z,69.33
2023-01-26T15:34:42.543Z,69.14
2023-01-26T15:37:32.916Z,69.14
2023-01-26T15:40:05.694Z,69.61
2023-01-26T15:42:38.267Z,69.63
2023-01-26T15:45:25.770Z,69.12
2023-01-26T15:47:58.132Z,69.73
2023-01-26T15:50:30.411Z,69.91
2023-01-26T15:53:02.740Z,69.86
2023-01-26T15:55:35.719Z,70.57
2023-01-26T15:58:08.892Z,70.86
2023-01-26T16:00:41.232Z,70.71
2023-01-26T16:03:16.091Z,71.33
2023-01-26T16:05:49.242Z,71.37
2023-01-26T16:08:22.199Z,71.70
2023-01-26T16:10:57.282Z,71.86
2023-01-26T16:13:29.852Z,72.00
2023-01-26T16:16:04.402Z,71.79
2023-01-26T16:18:37.082Z,72.17
2023-01-26T16:21:20.904Z,72.42
2023-01-26T16:23:53.007Z,72.59
2023-01-26T16:26:27.362Z,72.85
2023-01-26T16:29:00.181Z,72.91
2023-01-26T16:31:36.902Z,73.07
2023-01-26T16:34:11.049Z,73.13
2023-01-26T16:36:43.584Z,72.72
2023-01-26T16:39:15.724Z,72.86
2023-01-26T16:41:48.407Z,72.50
2023-01-26T16:44:22.093Z,72.35
2023-01-26T16:46:54.699Z,72.47
2023-01-26T16:49:27.175Z,72.23
2023-01-26T16:51:59.498Z,72.37
2023-01-26T16:54:31.600Z,72.04
2023-01-26T16:57:03.597Z,72.01
2023-01-26T16:59:35.814Z,70.94
2023-01-26T17:02:13.349Z,70.93
2023-01-26T17:04:46.127Z,71.14
2023-01-26T17:07:18.618Z,71.36
2023-01-26T17:09:51.155Z,71.28
2023-01-26T17:12:23.233Z,71.17
2023-01-26T17:14:55.420Z,71.15
2023-01-26T17:17:27.506Z,71.04
2023-01-26T17:20:17.613Z,71.28
2023-01-26T17:22:35.366Z,71.54
2023-01-26T17:25:08.317Z,71.47
2023-01-26T17:27:40.903Z,71.60
2023-01-26T17:30:27.614Z,71.49
2023-01-26T17:33:00.053Z,71.35
2023-01-26T17:35:32.205Z,71.71
2023-01-26T17:38:04.642Z,72.12
2023-01-26T17:40:36.890Z,72.38
2023-01-26T17:43:09.245Z,72.21
2023-01-26T17:45:41.585Z,72.54
2023-01-26T17:48:14.998Z,72.46
2023-01-26T17:50:54.987Z,72.62
2023-01-26T17:53:28.146Z,72.59
2023-01-26T17:56:00.633Z,72.83
2023-01-26T17:58:32.931Z,73.17
2023-01-26T18:01:06.301Z,73.44
2023-01-26T18:03:43.498Z,73.49
2023-01-26T18:06:16.390Z,73.70
2023-01-26T18:08:48.729Z,73.67
2023-01-26T18:11:21.027Z,73.54
2023-01-26T18:13:55.474Z,73.72
2023-01-26T18:16:28.119Z,73.85
2023-01-26T18:19:04.660Z,74.05
2023-01-26T18:21:37.078Z,74.13
2023-01-26T18:24:09.383Z,73.88
2023-01-26T18:26:41.664Z,73.64
2023-01-26T18:29:14.899Z,72.99
2023-01-26T18:31:48.369Z,72.97
2023-01-26T18:34:20.715Z,72.87
2023-01-26T18:36:52.900Z,72.93
2023-01-26T18:39:24.908Z,72.81
2023-01-26T18:41:56.876Z,72.90
2023-01-26T18:44:28.952Z,73.00
2023-01-26T18:47:00.900Z,73.10
2023-01-26T18:49:32.959Z,72.74
2023-01-26T18:52:05.291Z,72.51
2023-01-26T18:54:37.636Z,72.33
2023-01-26T18:57:10.611Z,72.29
2023-01-26T18:59:43.008Z,72.07
2023-01-26T19:02:16.417Z,72.12
2023-01-26T19:04:48.512Z,71.86
2023-01-26T19:07:21.266Z,72.07
2023-01-26T19:09:53.641Z,71.75
2023-01-26T19:12:25.856Z,71.25
2023-01-26T19:14:58.134Z,71.28
2023-01-26T19:17:30.480Z,71.11
2023-01-26T19:20:04.157Z,71.16
2023-01-26T19:22:35.878Z,71.39
2023-01-26T19:25:08.240Z,71.01
2023-01-26T19:27:40.661Z,71.02
2023-01-26T19:30:13.415Z,71.38
2023-01-26T19:33:03.522Z,71.26
2023-01-26T19:35:38.278Z,71.34
2023-01-26T19:38:10.139Z,71.16
2023-01-26T19:40:43.975Z,71.14
2023-01-26T19:43:18.647Z,70.64
2023-01-26T19:45:55.911Z,70.84
2023-01-26T19:48:29.526Z,70.85
2023-01-26T19:51:04.660Z,70.70
2023-01-26T19:53:39.887Z,70.84
2023-01-26T19:56:14.116Z,70.41
2023-01-26T19:58:51.339Z,70.48
2023-01-26T20:01:24.436Z,70.47
2023-01-26T20:04:00.231Z,70.54
2023-01-26T20:06:34.999Z,70.63
2023-01-26T20:09:08.763Z,70.79
2023-01-26T20:11:40.977Z,70.94
2023-01-26T20:14:12.988Z,70.90
2023-01-26T20:16:45.342Z,70.63
2023-01-26T20:19:18.310Z,70.38
2023-01-26T20:21:51.198Z,70.54
2023-01-26T20:24:23.287Z,70.22
2023-01-26T20:26:55.608Z,70.42
2023-01-26T20:29:27.645Z,70.34
2023-01-26T20:32:00.385Z,70.40
2023-01-26T20:34:32.440Z,70.41
2023-01-26T20:37:04.937Z,70.31
2023-01-26T20:39:37.327Z,70.37
2023-01-26T20:42:10.977Z,70.37
2023-01-26T20:44:44.523Z,70.15
2023-01-26T20:47:16.489Z,69.98
2023-01-26T20:49:48.405Z,70.17
2023-01-26T20:52:21.918Z,70.09
2023-01-26T20:54:54.035Z,70.06
2023-01-26T20:57:26.119Z,69.83
2023-01-26T20:59:58.044Z,69.90
2023-01-26T21:02:30.103Z,69.65
2023-01-26T21:05:02.801Z,69.79
2023-01-26T21:07:34.865Z,69.62
2023-01-26T21:10:07.343Z,69.57
2023-01-26T21:12:39.540Z,69.54
2023-01-26T21:15:12.207Z,69.48
2023-01-26T21:17:44.308Z,69.37
2023-01-26T21:20:16.625Z,69.16
2023-01-26T21:22:48.834Z,69.23
2023-01-26T21:25:21.253Z,69.28
2023-01-26T21:27:56.465Z,69.28
2023-01-26T21:30:28.651Z,69.59
2023-01-26T21:33:00.708Z,69.46
2023-01-26T21:35:32.782Z,69.42
2023-01-26T21:38:04.891Z,69.51
2023-01-26T21:40:37.072Z,69.62
2023-01-26T21:43:09.121Z,70.08
2023-01-26T21:45:54.068Z,69.76
2023-01-26T21:48:31.083Z,69.75
2023-01-26T21:51:21.506Z,69.86
2023-01-26T21:53:53.640Z,69.95
2023-01-26T21:56:25.588Z,69.63
2023-01-26T21:59:04.477Z,69.09
2023-01-26T22:01:48.336Z,69.34
2023-01-26T22:04:23.644Z,69.34
2023-01-26T22:06:56.865Z,69.53
2023-01-26T22:09:30.109Z,69.63
2023-01-26T22:12:03.087Z,69.62
2023-01-26T22:14:35.201Z,69.75
2023-01-26T22:17:07.499Z,69.94
2023-01-26T22:19:39.903Z,69.97
2023-01-26T22:22:12.793Z,69.83
2023-01-26T22:24:44.967Z,69.83
2023-01-26T22:27:17.069Z,69.60
2023-01-26T22:29:49.284Z,69.45
2023-01-26T22:32:21.464Z,69.52
2023-01-26T22:34:53.688Z,69.30
2023-01-26T22:37:25.651Z,69.25
2023-01-26T22:39:58.048Z,69.38
2023-01-26T22:42:30.514Z,69.24
2023-01-26T22:45:02.587Z,68.66
2023-01-26T22:47:36.278Z,68.74
2023-01-26T22:50:08.932Z,69.33
2023-01-26T22:52:40.994Z,69.44
2023-01-26T22:55:13.171Z,69.66
2023-01-26T22:57:45.492Z,69.80
2023-01-26T23:00:17.933Z,69.84
2023-01-26T23:02:50.177Z,69.32
2023-01-26T23:05:22.379Z,69.13
2023-01-26T23:07:54.772Z,69.13
2023-01-26T23:10:27.201Z,69.01
2023-01-26T23:12:59.206Z,69.08
2023-01-26T23:15:31.144Z,69.48
2023-01-26T23:18:03.192Z,69.54
2023-01-26T23:20:35.428Z,69.16
2023-01-26T23:23:07.463Z,68.92
2023-01-26T23:25:51.587Z,68.84
2023-01-26T23:28:24.414Z,68.72
2023-01-26T23:30:57.983Z,68.47
2023-01-26T23:33:32.021Z,68.61
2023-01-26T23:36:05.041Z,69.08
2023-01-26T23:38:37.617Z,69.31
2023-01-26T23:41:09.803Z,69.46
2023-01-26T23:43:42.082Z,69.42
2023-01-26T23:46:14.261Z,69.36
2023-01-26T23:48:46.268Z,69.25
2023-01-26T23:51:18.331Z,69.43
2023-01-26T23:53:50.477Z,69.16
2023-01-26T23:56:22.618Z,69.09
2023-01-26T23:58:55.015Z,68.87
